sensor_id;sensor_type;location;lat;lon;timestamp;P1;durP1;ratioP1;P2;durP2;ratioP2
16137;SDS011;8174;43.550;5.206;2022-11-13T00:00:18;10.53;;;5.93;;
16137;SDS011;8174;43.550;5.206;2022-11-13T00:02:46;9.93;;;6.50;;
16137;SDS011;8174;43.550;5.206;2022-11-13T00:05:14;30.53;;;22.40;;
16137;SDS011;8174;43.550;5.206;2022-11-13T00:07:41;10.87;;;6.63;;
16137;SDS011;8174;43.550;5.206;2022-11-13T00:10:09;8.67;;;5.23;;
16137;SDS011;8174;43.550;5.206;2022-11-13T00:12:37;9.33;;;5.83;;
16137;SDS011;8174;43.550;5.206;2022-11-13T00:15:06;8.73;;;5.83;;
16137;SDS011;8174;43.550;5.206;2022-11-13T00:17:34;12.23;;;8.20;;
16137;SDS011;8174;43.550;5.206;2022-11-13T00:20:01;9.53;;;6.20;;
16137;SDS011;8174;43.550;5.206;2022-11-13T00:22:29;11.90;;;6.67;;
16137;SDS011;8174;43.550;5.206;2022-11-13T00:24:57;10.60;;;6.87;;
16137;SDS011;8174;43.550;5.206;2022-11-13T00:27:24;10.40;;;6.30;;
16137;SDS011;8174;43.550;5.206;2022-11-13T00:29:52;9.77;;;6.10;;
16137;SDS011;8174;43.550;5.206;2022-11-13T00:32:21;10.67;;;6.30;;
16137;SDS011;8174;43.550;5.206;2022-11-13T00:34:49;10.50;;;6.30;;
16137;SDS011;8174;43.550;5.206;2022-11-13T00:37:17;9.13;;;6.07;;
16137;SDS011;8174;43.550;5.206;2022-11-13T00:39:44;8.47;;;5.83;;
16137;SDS011;8174;43.550;5.206;2022-11-13T00:42:12;9.97;;;5.23;;
16137;SDS011;8174;43.550;5.206;2022-11-13T00:44:40;9.90;;;5.10;;
16137;SDS011;8174;43.550;5.206;2022-11-13T00:47:07;9.43;;;5.93;;
16137;SDS011;8174;43.550;5.206;2022-11-13T00:49:36;10.77;;;4.83;;
16137;SDS011;8174;43.550;5.206;2022-11-13T00:52:03;10.87;;;6.03;;
16137;SDS011;8174;43.550;5.206;2022-11-13T00:54:31;7.67;;;4.70;;
16137;SDS011;8174;43.550;5.206;2022-11-13T00:56:59;10.07;;;4.50;;
16137;SDS011;8174;43.550;5.206;2022-11-13T00:59:28;6.77;;;4.40;;
16137;SDS011;8174;43.550;5.206;2022-11-13T01:01:55;6.87;;;4.30;;
16137;SDS011;8174;43.550;5.206;2022-11-13T01:04:23;6.00;;;4.40;;
16137;SDS011;8174;43.550;5.206;2022-11-13T01:06:52;7.33;;;3.93;;
16137;SDS011;8174;43.550;5.206;2022-11-13T01:09:20;5.33;;;4.00;;
16137;SDS011;8174;43.550;5.206;2022-11-13T01:11:47;7.97;;;4.27;;
16137;SDS011;8174;43.550;5.206;2022-11-13T01:14:15;9.10;;;4.23;;
16137;SDS011;8174;43.550;5.206;2022-11-13T01:16:42;7.40;;;3.70;;
16137;SDS011;8174;43.550;5.206;2022-11-13T01:19:10;5.07;;;3.50;;
16137;SDS011;8174;43.550;5.206;2022-11-13T01:21:37;5.23;;;3.30;;
16137;SDS011;8174;43.550;5.206;2022-11-13T01:24:06;9.70;;;3.50;;
16137;SDS011;8174;43.550;5.206;2022-11-13T01:26:34;5.13;;;3.40;;
16137;SDS011;8174;43.550;5.206;2022-11-13T01:29:03;4.50;;;3.20;;
16137;SDS011;8174;43.550;5.206;2022-11-13T01:31:32;5.47;;;3.00;;
16137;SDS011;8174;43.550;5.206;2022-11-13T01:34:00;4.20;;;2.90;;
16137;SDS011;8174;43.550;5.206;2022-11-13T01:36:28;4.87;;;3.10;;
16137;SDS011;8174;43.550;5.206;2022-11-13T01:38:55;3.97;;;2.77;;
16137;SDS011;8174;43.550;5.206;2022-11-13T01:41:25;4.43;;;2.90;;
16137;SDS011;8174;43.550;5.206;2022-11-13T01:43:54;4.10;;;2.90;;
16137;SDS011;8174;43.550;5.206;2022-11-13T01:46:25;3.67;;;2.83;;
16137;SDS011;8174;43.550;5.206;2022-11-13T01:48:56;4.77;;;2.80;;
16137;SDS011;8174;43.550;5.206;2022-11-13T01:51:25;5.23;;;2.90;;
16137;SDS011;8174;43.550;5.206;2022-11-13T01:53:53;5.73;;;3.10;;
16137;SDS011;8174;43.550;5.206;2022-11-13T01:56:21;4.60;;;3.20;;
16137;SDS011;8174;43.550;5.206;2022-11-13T01:58:52;3.83;;;3.20;;
16137;SDS011;8174;43.550;5.206;2022-11-13T02:01:20;8.07;;;3.30;;
16137;SDS011;8174;43.550;5.206;2022-11-13T02:03:47;4.17;;;2.70;;
16137;SDS011;8174;43.550;5.206;2022-11-13T02:06:15;3.97;;;2.90;;
16137;SDS011;8174;43.550;5.206;2022-11-13T02:08:43;5.17;;;3.27;;
16137;SDS011;8174;43.550;5.206;2022-11-13T02:11:11;3.93;;;2.60;;
16137;SDS011;8174;43.550;5.206;2022-11-13T02:13:39;4.13;;;3.00;;
16137;SDS011;8174;43.550;5.206;2022-11-13T02:16:08;4.60;;;2.90;;
16137;SDS011;8174;43.550;5.206;2022-11-13T02:18:36;5.57;;;3.00;;
16137;SDS011;8174;43.550;5.206;2022-11-13T02:21:08;4.50;;;2.97;;
16137;SDS011;8174;43.550;5.206;2022-11-13T02:23:40;6.03;;;3.13;;
16137;SDS011;8174;43.550;5.206;2022-11-13T02:26:10;6.20;;;2.80;;
16137;SDS011;8174;43.550;5.206;2022-11-13T02:28:38;4.40;;;2.90;;
16137;SDS011;8174;43.550;5.206;2022-11-13T02:31:06;5.07;;;2.87;;
16137;SDS011;8174;43.550;5.206;2022-11-13T02:33:34;4.13;;;2.83;;
16137;SDS011;8174;43.550;5.206;2022-11-13T02:36:02;5.20;;;2.90;;
16137;SDS011;8174;43.550;5.206;2022-11-13T02:38:31;5.13;;;2.87;;
16137;SDS011;8174;43.550;5.206;2022-11-13T02:40:59;5.83;;;3.00;;
16137;SDS011;8174;43.550;5.206;2022-11-13T02:43:28;4.47;;;2.80;;
16137;SDS011;8174;43.550;5.206;2022-11-13T02:45:55;5.03;;;2.93;;
16137;SDS011;8174;43.550;5.206;2022-11-13T02:48:23;4.20;;;2.87;;
16137;SDS011;8174;43.550;5.206;2022-11-13T02:50:51;4.70;;;2.90;;
16137;SDS011;8174;43.550;5.206;2022-11-13T02:53:18;4.13;;;2.93;;
16137;SDS011;8174;43.550;5.206;2022-11-13T02:55:46;3.63;;;2.80;;
16137;SDS011;8174;43.550;5.206;2022-11-13T02:58:14;4.87;;;3.30;;
16137;SDS011;8174;43.550;5.206;2022-11-13T03:00:43;4.20;;;3.30;;
16137;SDS011;8174;43.550;5.206;2022-11-13T03:03:10;4.07;;;2.67;;
16137;SDS011;8174;43.550;5.206;2022-11-13T03:05:38;4.77;;;2.73;;
16137;SDS011;8174;43.550;5.206;2022-11-13T03:08:05;4.27;;;2.83;;
16137;SDS011;8174;43.550;5.206;2022-11-13T03:10:33;4.93;;;2.33;;
16137;SDS011;8174;43.550;5.206;2022-11-13T03:13:01;3.53;;;2.43;;
16137;SDS011;8174;43.550;5.206;2022-11-13T03:15:28;5.23;;;2.70;;
16137;SDS011;8174;43.550;5.206;2022-11-13T03:18:00;3.97;;;2.63;;
16137;SDS011;8174;43.550;5.206;2022-11-13T03:20:28;7.27;;;2.77;;
16137;SDS011;8174;43.550;5.206;2022-11-13T03:22:55;7.43;;;2.60;;
16137;SDS011;8174;43.550;5.206;2022-11-13T03:25:23;3.60;;;2.80;;
16137;SDS011;8174;43.550;5.206;2022-11-13T03:27:51;4.77;;;2.70;;
16137;SDS011;8174;43.550;5.206;2022-11-13T03:30:19;3.67;;;2.63;;
16137;SDS011;8174;43.550;5.206;2022-11-13T03:32:46;7.53;;;2.97;;
16137;SDS011;8174;43.550;5.206;2022-11-13T03:35:15;4.60;;;2.70;;
16137;SDS011;8174;43.550;5.206;2022-11-13T03:37:43;4.20;;;2.80;;
16137;SDS011;8174;43.550;5.206;2022-11-13T03:40:11;5.43;;;2.90;;
16137;SDS011;8174;43.550;5.206;2022-11-13T03:42:38;4.20;;;3.00;;
16137;SDS011;8174;43.550;5.206;2022-11-13T03:45:06;4.70;;;2.90;;
16137;SDS011;8174;43.550;5.206;2022-11-13T03:47:34;4.27;;;2.60;;
16137;SDS011;8174;43.550;5.206;2022-11-13T03:50:01;3.93;;;3.00;;
16137;SDS011;8174;43.550;5.206;2022-11-13T03:52:31;4.67;;;2.97;;
16137;SDS011;8174;43.550;5.206;2022-11-13T03:54:58;3.30;;;2.90;;
16137;SDS011;8174;43.550;5.206;2022-11-13T03:57:26;5.37;;;2.87;;
16137;SDS011;8174;43.550;5.206;2022-11-13T03:59:53;5.37;;;2.80;;
16137;SDS011;8174;43.550;5.206;2022-11-13T04:02:21;5.10;;;3.00;;
16137;SDS011;8174;43.550;5.206;2022-11-13T04:04:49;4.53;;;2.70;;
16137;SDS011;8174;43.550;5.206;2022-11-13T04:07:17;4.23;;;2.83;;
16137;SDS011;8174;43.550;5.206;2022-11-13T04:09:46;4.50;;;2.80;;
16137;SDS011;8174;43.550;5.206;2022-11-13T04:12:15;5.63;;;2.60;;
16137;SDS011;8174;43.550;5.206;2022-11-13T04:14:43;4.03;;;2.57;;
16137;SDS011;8174;43.550;5.206;2022-11-13T04:17:11;4.73;;;2.47;;
16137;SDS011;8174;43.550;5.206;2022-11-13T04:19:39;3.70;;;2.63;;
16137;SDS011;8174;43.550;5.206;2022-11-13T04:22:07;4.90;;;3.13;;
16137;SDS011;8174;43.550;5.206;2022-11-13T04:24:34;4.57;;;2.70;;
16137;SDS011;8174;43.550;5.206;2022-11-13T04:27:03;5.00;;;3.00;;
16137;SDS011;8174;43.550;5.206;2022-11-13T04:29:31;5.93;;;3.07;;
16137;SDS011;8174;43.550;5.206;2022-11-13T04:31:59;4.30;;;3.03;;
16137;SDS011;8174;43.550;5.206;2022-11-13T04:34:27;7.70;;;3.23;;
16137;SDS011;8174;43.550;5.206;2022-11-13T04:36:55;4.20;;;2.67;;
16137;SDS011;8174;43.550;5.206;2022-11-13T04:39:23;4.93;;;2.73;;
16137;SDS011;8174;43.550;5.206;2022-11-13T04:41:51;7.90;;;3.00;;
16137;SDS011;8174;43.550;5.206;2022-11-13T04:44:37;5.37;;;2.90;;
16137;SDS011;8174;43.550;5.206;2022-11-13T04:47:05;3.97;;;2.90;;
16137;SDS011;8174;43.550;5.206;2022-11-13T04:49:33;6.07;;;2.83;;
16137;SDS011;8174;43.550;5.206;2022-11-13T04:52:00;4.03;;;2.40;;
16137;SDS011;8174;43.550;5.206;2022-11-13T04:54:28;5.10;;;2.70;;
16137;SDS011;8174;43.550;5.206;2022-11-13T04:56:56;5.10;;;2.70;;
16137;SDS011;8174;43.550;5.206;2022-11-13T04:59:24;5.83;;;2.67;;
16137;SDS011;8174;43.550;5.206;2022-11-13T05:01:53;4.67;;;2.70;;
16137;SDS011;8174;43.550;5.206;2022-11-13T05:04:22;3.20;;;2.50;;
16137;SDS011;8174;43.550;5.206;2022-11-13T05:06:50;4.57;;;2.17;;
16137;SDS011;8174;43.550;5.206;2022-11-13T05:09:17;3.93;;;2.50;;
16137;SDS011;8174;43.550;5.206;2022-11-13T05:11:45;4.80;;;2.40;;
16137;SDS011;8174;43.550;5.206;2022-11-13T05:14:13;4.00;;;2.30;;
16137;SDS011;8174;43.550;5.206;2022-11-13T05:16:41;3.17;;;2.50;;
16137;SDS011;8174;43.550;5.206;2022-11-13T05:19:10;4.20;;;2.47;;
16137;SDS011;8174;43.550;5.206;2022-11-13T05:21:38;4.03;;;2.33;;
16137;SDS011;8174;43.550;5.206;2022-11-13T05:24:06;3.83;;;2.40;;
16137;SDS011;8174;43.550;5.206;2022-11-13T05:26:36;5.90;;;2.87;;
16137;SDS011;8174;43.550;5.206;2022-11-13T05:29:03;3.87;;;2.70;;
16137;SDS011;8174;43.550;5.206;2022-11-13T05:31:31;3.17;;;2.30;;
16137;SDS011;8174;43.550;5.206;2022-11-13T05:33:58;3.17;;;2.30;;
16137;SDS011;8174;43.550;5.206;2022-11-13T05:36:27;4.60;;;2.10;;
16137;SDS011;8174;43.550;5.206;2022-11-13T05:38:55;3.00;;;2.13;;
16137;SDS011;8174;43.550;5.206;2022-11-13T05:41:22;3.97;;;2.40;;
16137;SDS011;8174;43.550;5.206;2022-11-13T05:43:50;3.07;;;2.07;;
16137;SDS011;8174;43.550;5.206;2022-11-13T05:46:19;4.07;;;2.00;;
16137;SDS011;8174;43.550;5.206;2022-11-13T05:48:47;4.27;;;2.10;;
16137;SDS011;8174;43.550;5.206;2022-11-13T05:51:18;6.10;;;2.00;;
16137;SDS011;8174;43.550;5.206;2022-11-13T05:53:47;4.80;;;2.20;;
16137;SDS011;8174;43.550;5.206;2022-11-13T05:56:16;2.50;;;1.87;;
16137;SDS011;8174;43.550;5.206;2022-11-13T05:58:44;2.00;;;1.70;;
16137;SDS011;8174;43.550;5.206;2022-11-13T06:01:13;2.70;;;1.90;;
16137;SDS011;8174;43.550;5.206;2022-11-13T06:03:41;3.37;;;1.90;;
16137;SDS011;8174;43.550;5.206;2022-11-13T06:06:09;2.57;;;2.20;;
16137;SDS011;8174;43.550;5.206;2022-11-13T06:08:37;2.53;;;1.73;;
16137;SDS011;8174;43.550;5.206;2022-11-13T06:11:10;3.90;;;2.00;;
16137;SDS011;8174;43.550;5.206;2022-11-13T06:13:38;3.63;;;1.70;;
16137;SDS011;8174;43.550;5.206;2022-11-13T06:16:07;2.87;;;1.70;;
16137;SDS011;8174;43.550;5.206;2022-11-13T06:18:35;2.10;;;1.50;;
16137;SDS011;8174;43.550;5.206;2022-11-13T06:21:03;4.47;;;2.00;;
16137;SDS011;8174;43.550;5.206;2022-11-13T06:23:32;3.97;;;1.90;;
16137;SDS011;8174;43.550;5.206;2022-11-13T06:26:00;4.67;;;1.70;;
16137;SDS011;8174;43.550;5.206;2022-11-13T06:28:29;2.20;;;1.60;;
16137;SDS011;8174;43.550;5.206;2022-11-13T06:31:00;2.40;;;1.87;;
16137;SDS011;8174;43.550;5.206;2022-11-13T06:33:28;2.67;;;1.80;;
16137;SDS011;8174;43.550;5.206;2022-11-13T06:35:55;5.10;;;1.87;;
16137;SDS011;8174;43.550;5.206;2022-11-13T06:38:23;3.30;;;2.00;;
16137;SDS011;8174;43.550;5.206;2022-11-13T06:40:51;3.13;;;2.00;;
16137;SDS011;8174;43.550;5.206;2022-11-13T06:43:18;2.13;;;1.90;;
16137;SDS011;8174;43.550;5.206;2022-11-13T06:45:47;3.70;;;2.60;;
16137;SDS011;8174;43.550;5.206;2022-11-13T06:48:15;8.20;;;3.10;;
16137;SDS011;8174;43.550;5.206;2022-11-13T06:50:42;5.63;;;3.37;;
16137;SDS011;8174;43.550;5.206;2022-11-13T06:53:10;9.23;;;6.17;;
16137;SDS011;8174;43.550;5.206;2022-11-13T06:55:41;5.87;;;4.17;;
16137;SDS011;8174;43.550;5.206;2022-11-13T06:58:08;4.60;;;3.50;;
16137;SDS011;8174;43.550;5.206;2022-11-13T07:00:36;9.40;;;4.33;;
16137;SDS011;8174;43.550;5.206;2022-11-13T07:03:05;7.80;;;3.90;;
16137;SDS011;8174;43.550;5.206;2022-11-13T07:05:34;5.97;;;3.63;;
16137;SDS011;8174;43.550;5.206;2022-11-13T07:08:03;4.77;;;3.00;;
16137;SDS011;8174;43.550;5.206;2022-11-13T07:10:30;4.53;;;3.23;;
16137;SDS011;8174;43.550;5.206;2022-11-13T07:12:58;7.73;;;3.00;;
16137;SDS011;8174;43.550;5.206;2022-11-13T07:15:25;4.07;;;2.60;;
16137;SDS011;8174;43.550;5.206;2022-11-13T07:17:53;6.00;;;2.67;;
16137;SDS011;8174;43.550;5.206;2022-11-13T07:20:22;4.93;;;2.63;;
16137;SDS011;8174;43.550;5.206;2022-11-13T07:22:50;4.50;;;2.67;;
16137;SDS011;8174;43.550;5.206;2022-11-13T07:25:21;4.93;;;2.50;;
16137;SDS011;8174;43.550;5.206;2022-11-13T07:27:48;2.77;;;2.20;;
16137;SDS011;8174;43.550;5.206;2022-11-13T07:30:16;5.00;;;2.07;;
16137;SDS011;8174;43.550;5.206;2022-11-13T07:32:44;3.27;;;2.20;;
16137;SDS011;8174;43.550;5.206;2022-11-13T07:35:11;5.20;;;2.10;;
16137;SDS011;8174;43.550;5.206;2022-11-13T07:37:40;3.97;;;2.20;;
16137;SDS011;8174;43.550;5.206;2022-11-13T07:40:08;2.87;;;1.97;;
16137;SDS011;8174;43.550;5.206;2022-11-13T07:42:35;4.43;;;2.57;;
16137;SDS011;8174;43.550;5.206;2022-11-13T07:45:04;5.07;;;3.87;;
16137;SDS011;8174;43.550;5.206;2022-11-13T07:47:32;4.20;;;2.70;;
16137;SDS011;8174;43.550;5.206;2022-11-13T07:50:02;4.57;;;2.63;;
16137;SDS011;8174;43.550;5.206;2022-11-13T07:52:29;5.07;;;2.27;;
16137;SDS011;8174;43.550;5.206;2022-11-13T07:54:59;6.77;;;3.20;;
16137;SDS011;8174;43.550;5.206;2022-11-13T07:57:27;9.80;;;5.10;;
16137;SDS011;8174;43.550;5.206;2022-11-13T07:59:55;9.17;;;4.37;;
16137;SDS011;8174;43.550;5.206;2022-11-13T08:02:22;8.83;;;4.57;;
16137;SDS011;8174;43.550;5.206;2022-11-13T08:04:53;7.60;;;4.60;;
16137;SDS011;8174;43.550;5.206;2022-11-13T08:07:21;6.07;;;3.27;;
16137;SDS011;8174;43.550;5.206;2022-11-13T08:09:49;8.10;;;3.37;;
16137;SDS011;8174;43.550;5.206;2022-11-13T08:12:18;8.27;;;3.17;;
16137;SDS011;8174;43.550;5.206;2022-11-13T08:14:45;6.97;;;3.40;;
16137;SDS011;8174;43.550;5.206;2022-11-13T08:17:13;7.73;;;3.47;;
16137;SDS011;8174;43.550;5.206;2022-11-13T08:19:41;6.00;;;3.43;;
16137;SDS011;8174;43.550;5.206;2022-11-13T08:22:08;6.87;;;3.93;;
16137;SDS011;8174;43.550;5.206;2022-11-13T08:24:35;9.80;;;5.17;;
16137;SDS011;8174;43.550;5.206;2022-11-13T08:27:04;10.17;;;5.20;;
16137;SDS011;8174;43.550;5.206;2022-11-13T08:29:33;10.80;;;6.07;;
16137;SDS011;8174;43.550;5.206;2022-11-13T08:32:02;11.50;;;5.63;;
16137;SDS011;8174;43.550;5.206;2022-11-13T08:34:30;13.47;;;6.23;;
16137;SDS011;8174;43.550;5.206;2022-11-13T08:36:57;15.60;;;7.13;;
16137;SDS011;8174;43.550;5.206;2022-11-13T08:39:25;14.47;;;8.03;;
16137;SDS011;8174;43.550;5.206;2022-11-13T08:41:52;14.40;;;8.00;;
16137;SDS011;8174;43.550;5.206;2022-11-13T08:44:20;14.53;;;7.80;;
16137;SDS011;8174;43.550;5.206;2022-11-13T08:46:49;12.47;;;7.63;;
16137;SDS011;8174;43.550;5.206;2022-11-13T08:49:16;14.37;;;8.27;;
16137;SDS011;8174;43.550;5.206;2022-11-13T08:51:44;19.23;;;8.90;;
16137;SDS011;8174;43.550;5.206;2022-11-13T08:54:11;18.10;;;11.10;;
16137;SDS011;8174;43.550;5.206;2022-11-13T08:56:39;21.05;;;10.88;;
16137;SDS011;8174;43.550;5.206;2022-11-13T08:59:07;15.63;;;9.20;;
16137;SDS011;8174;43.550;5.206;2022-11-13T09:01:35;19.80;;;9.73;;
16137;SDS011;8174;43.550;5.206;2022-11-13T09:04:06;21.60;;;10.07;;
16137;SDS011;8174;43.550;5.206;2022-11-13T09:06:35;25.73;;;13.70;;
16137;SDS011;8174;43.550;5.206;2022-11-13T09:09:03;54.15;;;28.90;;
16137;SDS011;8174;43.550;5.206;2022-11-13T09:11:31;40.37;;;21.83;;
16137;SDS011;8174;43.550;5.206;2022-11-13T09:13:58;34.03;;;18.73;;
16137;SDS011;8174;43.550;5.206;2022-11-13T09:16:26;30.73;;;15.30;;
16137;SDS011;8174;43.550;5.206;2022-11-13T09:18:53;32.67;;;16.03;;
16137;SDS011;8174;43.550;5.206;2022-11-13T09:21:22;35.20;;;17.00;;
16137;SDS011;8174;43.550;5.206;2022-11-13T09:23:50;38.28;;;16.70;;
16137;SDS011;8174;43.550;5.206;2022-11-13T09:26:20;47.08;;;20.77;;
16137;SDS011;8174;43.550;5.206;2022-11-13T09:28:48;44.33;;;20.47;;
16137;SDS011;8174;43.550;5.206;2022-11-13T09:31:15;39.60;;;18.40;;
16137;SDS011;8174;43.550;5.206;2022-11-13T09:33:43;20.83;;;10.45;;
16137;SDS011;8174;43.550;5.206;2022-11-13T09:36:11;21.10;;;10.50;;
16137;SDS011;8174;43.550;5.206;2022-11-13T09:38:41;34.25;;;15.27;;
16137;SDS011;8174;43.550;5.206;2022-11-13T09:41:09;47.42;;;24.45;;
16137;SDS011;8174;43.550;5.206;2022-11-13T09:43:38;44.85;;;22.10;;
16137;SDS011;8174;43.550;5.206;2022-11-13T09:46:09;46.78;;;24.83;;
16137;SDS011;8174;43.550;5.206;2022-11-13T09:48:39;45.17;;;23.23;;
16137;SDS011;8174;43.550;5.206;2022-11-13T09:51:09;33.42;;;18.67;;
16137;SDS011;8174;43.550;5.206;2022-11-13T09:53:41;28.25;;;15.77;;
16137;SDS011;8174;43.550;5.206;2022-11-13T09:56:15;18.85;;;10.30;;
16137;SDS011;8174;43.550;5.206;2022-11-13T09:58:45;16.25;;;8.55;;
16137;SDS011;8174;43.550;5.206;2022-11-13T10:01:16;12.27;;;5.63;;
16137;SDS011;8174;43.550;5.206;2022-11-13T10:03:49;11.93;;;6.00;;
16137;SDS011;8174;43.550;5.206;2022-11-13T10:06:20;10.43;;;5.78;;
16137;SDS011;8174;43.550;5.206;2022-11-13T10:08:52;7.35;;;4.72;;
16137;SDS011;8174;43.550;5.206;2022-11-13T10:11:25;13.57;;;6.18;;
16137;SDS011;8174;43.550;5.206;2022-11-13T10:13:58;9.95;;;6.22;;
16137;SDS011;8174;43.550;5.206;2022-11-13T10:16:27;12.20;;;6.57;;
16137;SDS011;8174;43.550;5.206;2022-11-13T10:18:58;10.02;;;5.35;;
16137;SDS011;8174;43.550;5.206;2022-11-13T10:21:29;8.18;;;5.43;;
16137;SDS011;8174;43.550;5.206;2022-11-13T10:24:00;6.10;;;3.90;;
16137;SDS011;8174;43.550;5.206;2022-11-13T10:26:30;9.57;;;4.10;;
16137;SDS011;8174;43.550;5.206;2022-11-13T10:28:59;7.13;;;3.50;;
16137;SDS011;8174;43.550;5.206;2022-11-13T10:31:27;6.35;;;4.07;;
16137;SDS011;8174;43.550;5.206;2022-11-13T10:33:55;8.73;;;4.30;;
16137;SDS011;8174;43.550;5.206;2022-11-13T10:36:28;9.65;;;4.20;;
16137;SDS011;8174;43.550;5.206;2022-11-13T10:39:00;10.05;;;4.50;;
16137;SDS011;8174;43.550;5.206;2022-11-13T10:41:29;7.07;;;3.83;;
16137;SDS011;8174;43.550;5.206;2022-11-13T10:43:57;6.78;;;3.90;;
16137;SDS011;8174;43.550;5.206;2022-11-13T10:46:25;8.25;;;4.50;;
16137;SDS011;8174;43.550;5.206;2022-11-13T10:48:54;7.18;;;3.65;;
16137;SDS011;8174;43.550;5.206;2022-11-13T10:51:22;6.07;;;3.63;;
16137;SDS011;8174;43.550;5.206;2022-11-13T10:53:51;11.10;;;4.32;;
16137;SDS011;8174;43.550;5.206;2022-11-13T10:56:21;8.55;;;5.20;;
16137;SDS011;8174;43.550;5.206;2022-11-13T10:59:02;5.95;;;3.75;;
16137;SDS011;8174;43.550;5.206;2022-11-13T11:01:29;8.73;;;4.25;;
16137;SDS011;8174;43.550;5.206;2022-11-13T11:03:57;6.88;;;3.97;;
16137;SDS011;8174;43.550;5.206;2022-11-13T11:06:31;9.60;;;4.53;;
16137;SDS011;8174;43.550;5.206;2022-11-13T11:09:06;7.65;;;4.07;;
16137;SDS011;8174;43.550;5.206;2022-11-13T11:11:36;7.05;;;4.10;;
16137;SDS011;8174;43.550;5.206;2022-11-13T11:14:21;7.43;;;3.95;;
16137;SDS011;8174;43.550;5.206;2022-11-13T11:16:50;6.63;;;4.22;;
16137;SDS011;8174;43.550;5.206;2022-11-13T11:19:18;7.03;;;4.15;;
16137;SDS011;8174;43.550;5.206;2022-11-13T11:21:47;9.00;;;3.65;;
16137;SDS011;8174;43.550;5.206;2022-11-13T11:24:18;9.75;;;3.63;;
16137;SDS011;8174;43.550;5.206;2022-11-13T11:26:50;4.60;;;2.80;;
16137;SDS011;8174;43.550;5.206;2022-11-13T11:29:20;7.88;;;3.50;;
16137;SDS011;8174;43.550;5.206;2022-11-13T11:31:52;5.63;;;2.85;;
16137;SDS011;8174;43.550;5.206;2022-11-13T11:34:22;5.90;;;3.15;;
16137;SDS011;8174;43.550;5.206;2022-11-13T11:36:53;4.72;;;3.05;;
16137;SDS011;8174;43.550;5.206;2022-11-13T11:39:26;7.28;;;3.22;;
16137;SDS011;8174;43.550;5.206;2022-11-13T11:41:59;8.52;;;3.08;;
16137;SDS011;8174;43.550;5.206;2022-11-13T11:44:30;6.00;;;2.70;;
16137;SDS011;8174;43.550;5.206;2022-11-13T11:47:01;7.75;;;2.85;;
16137;SDS011;8174;43.550;5.206;2022-11-13T11:49:29;6.72;;;2.97;;
16137;SDS011;8174;43.550;5.206;2022-11-13T11:52:00;3.88;;;2.45;;
16137;SDS011;8174;43.550;5.206;2022-11-13T11:54:34;9.40;;;2.70;;
16137;SDS011;8174;43.550;5.206;2022-11-13T11:57:12;5.82;;;2.55;;
16137;SDS011;8174;43.550;5.206;2022-11-13T11:59:46;5.75;;;2.60;;
16137;SDS011;8174;43.550;5.206;2022-11-13T12:02:27;4.32;;;2.20;;
16137;SDS011;8174;43.550;5.206;2022-11-13T12:05:02;9.23;;;2.53;;
16137;SDS011;8174;43.550;5.206;2022-11-13T12:07:34;5.25;;;1.98;;
16137;SDS011;8174;43.550;5.206;2022-11-13T12:10:08;5.32;;;1.90;;
16137;SDS011;8174;43.550;5.206;2022-11-13T12:12:43;4.68;;;2.40;;
16137;SDS011;8174;43.550;5.206;2022-11-13T12:15:15;7.10;;;2.60;;
16137;SDS011;8174;43.550;5.206;2022-11-13T12:17:47;5.50;;;2.60;;
16137;SDS011;8174;43.550;5.206;2022-11-13T12:20:23;5.40;;;2.33;;
16137;SDS011;8174;43.550;5.206;2022-11-13T12:22:54;4.00;;;2.30;;
16137;SDS011;8174;43.550;5.206;2022-11-13T12:25:27;5.20;;;2.30;;
16137;SDS011;8174;43.550;5.206;2022-11-13T12:27:58;4.47;;;2.28;;
16137;SDS011;8174;43.550;5.206;2022-11-13T12:30:32;7.80;;;2.60;;
16137;SDS011;8174;43.550;5.206;2022-11-13T12:33:10;6.60;;;2.72;;
16137;SDS011;8174;43.550;5.206;2022-11-13T12:35:40;4.43;;;2.80;;
16137;SDS011;8174;43.550;5.206;2022-11-13T12:38:12;8.13;;;2.92;;
16137;SDS011;8174;43.550;5.206;2022-11-13T12:40:44;5.85;;;2.83;;
16137;SDS011;8174;43.550;5.206;2022-11-13T12:43:24;7.57;;;3.00;;
16137;SDS011;8174;43.550;5.206;2022-11-13T12:45:54;10.20;;;3.35;;
16137;SDS011;8174;43.550;5.206;2022-11-13T12:48:26;7.80;;;3.50;;
16137;SDS011;8174;43.550;5.206;2022-11-13T12:50:57;6.70;;;3.33;;
16137;SDS011;8174;43.550;5.206;2022-11-13T12:53:26;6.43;;;3.13;;
16137;SDS011;8174;43.550;5.206;2022-11-13T12:55:55;7.55;;;3.22;;
16137;SDS011;8174;43.550;5.206;2022-11-13T12:58:26;8.90;;;3.45;;
16137;SDS011;8174;43.550;5.206;2022-11-13T13:00:59;8.55;;;3.33;;
16137;SDS011;8174;43.550;5.206;2022-11-13T13:06:28;7.00;;;3.00;;
16137;SDS011;8174;43.550;5.206;2022-11-13T13:09:18;9.07;;;3.17;;
16137;SDS011;8174;43.550;5.206;2022-11-13T13:11:52;6.47;;;3.15;;
16137;SDS011;8174;43.550;5.206;2022-11-13T13:14:36;6.25;;;3.33;;
16137;SDS011;8174;43.550;5.206;2022-11-13T13:17:15;9.10;;;3.22;;
16137;SDS011;8174;43.550;5.206;2022-11-13T13:19:43;10.73;;;2.95;;
16137;SDS011;8174;43.550;5.206;2022-11-13T13:22:22;5.75;;;3.25;;
16137;SDS011;8174;43.550;5.206;2022-11-13T13:24:57;5.75;;;2.95;;
16137;SDS011;8174;43.550;5.206;2022-11-13T13:27:25;7.70;;;3.85;;
16137;SDS011;8174;43.550;5.206;2022-11-13T13:29:54;13.30;;;6.35;;
16137;SDS011;8174;43.550;5.206;2022-11-13T13:32:22;14.95;;;5.82;;
16137;SDS011;8174;43.550;5.206;2022-11-13T13:34:55;9.98;;;4.30;;
16137;SDS011;8174;43.550;5.206;2022-11-13T13:37:25;7.38;;;2.88;;
16137;SDS011;8174;43.550;5.206;2022-11-13T13:39:57;8.65;;;3.58;;
16137;SDS011;8174;43.550;5.206;2022-11-13T13:42:36;8.02;;;3.58;;
16137;SDS011;8174;43.550;5.206;2022-11-13T13:45:16;10.35;;;3.50;;
16137;SDS011;8174;43.550;5.206;2022-11-13T13:47:46;7.40;;;3.78;;
16137;SDS011;8174;43.550;5.206;2022-11-13T13:50:15;12.88;;;4.55;;
16137;SDS011;8174;43.550;5.206;2022-11-13T13:52:43;9.65;;;6.15;;
16137;SDS011;8174;43.550;5.206;2022-11-13T13:55:15;8.88;;;4.90;;
16137;SDS011;8174;43.550;5.206;2022-11-13T13:57:43;9.55;;;4.85;;
16137;SDS011;8174;43.550;5.206;2022-11-13T14:00:11;7.40;;;4.80;;
16137;SDS011;8174;43.550;5.206;2022-11-13T14:02:45;11.90;;;5.07;;
16137;SDS011;8174;43.550;5.206;2022-11-13T14:05:26;8.15;;;5.05;;
16137;SDS011;8174;43.550;5.206;2022-11-13T14:07:54;9.75;;;5.88;;
16137;SDS011;8174;43.550;5.206;2022-11-13T14:10:23;12.80;;;5.43;;
16137;SDS011;8174;43.550;5.206;2022-11-13T14:12:50;10.02;;;5.10;;
16137;SDS011;8174;43.550;5.206;2022-11-13T14:15:23;11.27;;;5.47;;
16137;SDS011;8174;43.550;5.206;2022-11-13T14:17:52;11.57;;;6.38;;
16137;SDS011;8174;43.550;5.206;2022-11-13T14:20:33;10.07;;;5.47;;
16137;SDS011;8174;43.550;5.206;2022-11-13T14:23:02;11.05;;;5.13;;
16137;SDS011;8174;43.550;5.206;2022-11-13T14:25:30;12.43;;;5.30;;
16137;SDS011;8174;43.550;5.206;2022-11-13T14:27:58;12.35;;;5.32;;
16137;SDS011;8174;43.550;5.206;2022-11-13T14:30:26;10.50;;;5.10;;
16137;SDS011;8174;43.550;5.206;2022-11-13T14:32:55;11.73;;;4.63;;
16137;SDS011;8174;43.550;5.206;2022-11-13T14:35:24;9.35;;;4.47;;
16137;SDS011;8174;43.550;5.206;2022-11-13T14:37:52;9.23;;;4.75;;
16137;SDS011;8174;43.550;5.206;2022-11-13T14:40:24;11.30;;;5.40;;
16137;SDS011;8174;43.550;5.206;2022-11-13T14:42:53;11.93;;;5.40;;
16137;SDS011;8174;43.550;5.206;2022-11-13T14:45:22;14.65;;;5.80;;
16137;SDS011;8174;43.550;5.206;2022-11-13T14:47:59;23.05;;;9.70;;
16137;SDS011;8174;43.550;5.206;2022-11-13T14:50:27;22.77;;;10.70;;
16137;SDS011;8174;43.550;5.206;2022-11-13T14:52:55;17.52;;;8.52;;
16137;SDS011;8174;43.550;5.206;2022-11-13T14:55:26;14.45;;;6.30;;
16137;SDS011;8174;43.550;5.206;2022-11-13T14:57:55;10.00;;;5.55;;
16137;SDS011;8174;43.550;5.206;2022-11-13T15:00:26;13.48;;;5.22;;
16137;SDS011;8174;43.550;5.206;2022-11-13T15:02:54;12.00;;;5.53;;
16137;SDS011;8174;43.550;5.206;2022-11-13T15:05:23;10.95;;;5.47;;
16137;SDS011;8174;43.550;5.206;2022-11-13T15:07:51;12.57;;;5.38;;
16137;SDS011;8174;43.550;5.206;2022-11-13T15:10:19;7.93;;;4.72;;
16137;SDS011;8174;43.550;5.206;2022-11-13T15:12:48;13.68;;;5.85;;